PWSweather.com
Personal Weather Stations
Station Observations
270882
Flassian, LimouxFR 11300

FlassianLimouxFR 11300

Lat: 43.071798, Lon: 2.217292

Elevation: 165

Station Type: Oregon WMR 200

http://www.meteolimoux.fr

High Low Average
Temperature 58.5°F14.7°C 41.9°F5.5°C 50.0°F10.0°C
Dew Point 39.6°F4.2°C 31.3°F-0.4°C 35.4°F1.9°C
Winds 8.3 mph 13.4 kmh Calm Calm 3.0 mph S4.8 kmh S
Wind Gusts 15.9 mph25.6 kmh -- 5.0 mph8.0 kmh
Humidity 73% 46% 57%
Pressure 30.01 in1016.3 mb 29.93 in1013.5 mb -
Precipitation 0.00 in0.0 mm - -
Hour Temp Dew Point Humidity Winds Wind Gusts Pressure Precip Precip Rate Daily Precip Total
12:02 AM 49.1°F9.5°C 34.5°F1.4°C 57% 3.6 mph WSW5.8 kmh WSW 8.3 mph13.4 kmh 30.01 in1016.3 mb - 0.00 in0.0 mm 0.00 in0.0 mm
12:07 AM 48.9°F9.4°C 34.3°F1.3°C 57% 4.7 mph WNW7.6 kmh WNW 9.6 mph15.4 kmh 30.01 in1016.3 mb - 0.00 in0.0 mm 0.00 in0.0 mm
12:12 AM 48.9°F9.4°C 34.3°F1.3°C 57% 4.9 mph W7.9 kmh W 8.7 mph14.0 kmh 30.01 in1016.3 mb - 0.00 in0.0 mm 0.00 in0.0 mm
12:17 AM 48.9°F9.4°C 34.3°F1.3°C 57% 5.6 mph WNW9.0 kmh WNW 8.3 mph13.4 kmh 29.99 in1015.6 mb - 0.00 in0.0 mm 0.00 in0.0 mm
12:22 AM 48.7°F9.3°C 34.2°F1.2°C 57% 5.6 mph W9.0 kmh W 8.9 mph14.3 kmh 29.99 in1015.6 mb - 0.00 in0.0 mm 0.00 in0.0 mm
12:27 AM 48.9°F9.4°C 34.3°F1.3°C 57% 5.4 mph W8.7 kmh W 9.8 mph15.8 kmh 29.99 in1015.6 mb - 0.00 in0.0 mm 0.00 in0.0 mm
12:32 AM 48.9°F9.4°C 34.0°F1.1°C 56% 5.6 mph W9.0 kmh W 11.6 mph18.7 kmh 29.99 in1015.6 mb - 0.00 in0.0 mm 0.00 in0.0 mm
12:37 AM 48.9°F9.4°C 34.0°F1.1°C 56% 4.3 mph WNW6.9 kmh WNW 8.7 mph14.0 kmh 29.99 in1015.6 mb - 0.00 in0.0 mm 0.00 in0.0 mm
12:42 AM 49.1°F9.5°C 34.2°F1.2°C 56% 5.8 mph W9.3 kmh W 11.2 mph18.0 kmh 29.99 in1015.6 mb - 0.00 in0.0 mm 0.00 in0.0 mm
12:47 AM 49.1°F9.5°C 33.6°F0.9°C 55% 6.9 mph W11.1 kmh W 11.0 mph17.7 kmh 30.01 in1016.3 mb - 0.00 in0.0 mm 0.00 in0.0 mm
12:52 AM 49.3°F9.6°C 33.8°F1.0°C 55% 6.0 mph WNW9.7 kmh WNW 9.6 mph15.4 kmh 30.01 in1016.3 mb - 0.00 in0.0 mm 0.00 in0.0 mm
12:57 AM 49.3°F9.6°C 33.8°F1.0°C 55% 6.9 mph WSW11.1 kmh WSW 11.4 mph18.3 kmh 30.01 in1016.3 mb - 0.00 in0.0 mm 0.00 in0.0 mm
01:02 AM 49.3°F9.6°C 33.8°F1.0°C 55% 8.3 mph WNW13.4 kmh WNW 15.9 mph25.6 kmh 29.99 in1015.6 mb - 0.00 in0.0 mm 0.00 in0.0 mm
01:07 AM 49.1°F9.5°C 33.6°F0.9°C 55% 7.2 mph WSW11.6 kmh WSW 12.5 mph20.1 kmh 29.99 in1015.6 mb - 0.00 in0.0 mm 0.00 in0.0 mm
01:12 AM 49.1°F9.5°C 33.3°F0.7°C 54% 4.3 mph WSW6.9 kmh WSW 10.7 mph17.2 kmh 29.99 in1015.6 mb - 0.00 in0.0 mm 0.00 in0.0 mm
01:17 AM 49.1°F9.5°C 33.3°F0.7°C 54% 6.5 mph WSW10.5 kmh WSW 13.2 mph21.2 kmh 29.99 in1015.6 mb - 0.00 in0.0 mm 0.00 in0.0 mm
01:22 AM 49.1°F9.5°C 33.3°F0.7°C 54% 7.4 mph W11.9 kmh W 12.5 mph20.1 kmh 29.99 in1015.6 mb - 0.00 in0.0 mm 0.00 in0.0 mm
01:27 AM 49.1°F9.5°C 33.3°F0.7°C 54% 6.7 mph W10.8 kmh W 12.3 mph19.8 kmh 29.99 in1015.6 mb - 0.00 in0.0 mm 0.00 in0.0 mm
01:32 AM 49.1°F9.5°C 33.3°F0.7°C 54% 5.8 mph WNW9.3 kmh WNW 12.5 mph20.1 kmh 29.96 in1014.6 mb - 0.00 in0.0 mm 0.00 in0.0 mm
01:37 AM 48.9°F9.4°C 33.1°F0.6°C 54% 6.9 mph WSW11.1 kmh WSW 10.3 mph16.6 kmh 29.96 in1014.6 mb - 0.00 in0.0 mm 0.00 in0.0 mm
01:42 AM 48.9°F9.4°C 32.5°F0.3°C 53% 6.3 mph W10.1 kmh W 11.2 mph18.0 kmh 29.96 in1014.6 mb - 0.00 in0.0 mm 0.00 in0.0 mm
01:47 AM 48.9°F9.4°C 32.5°F0.3°C 53% 5.8 mph WSW9.3 kmh WSW 9.8 mph15.8 kmh 29.96 in1014.6 mb - 0.00 in0.0 mm 0.00 in0.0 mm
01:52 AM 48.9°F9.4°C 32.5°F0.3°C 53% 5.8 mph W9.3 kmh W 5.8 mph9.3 kmh 29.96 in1014.6 mb - 0.00 in0.0 mm 0.00 in0.0 mm
01:57 AM 48.9°F9.4°C 32.5°F0.3°C 53% 5.8 mph SW9.3 kmh SW 10.7 mph17.2 kmh 29.96 in1014.6 mb - 0.00 in0.0 mm 0.00 in0.0 mm
02:02 AM 48.7°F9.3°C 32.4°F0.2°C 53% 5.6 mph W9.0 kmh W 10.5 mph16.9 kmh 29.96 in1014.6 mb - 0.00 in0.0 mm 0.00 in0.0 mm
02:07 AM 48.6°F9.2°C 32.2°F0.1°C 53% 3.6 mph WSW5.8 kmh WSW 7.2 mph11.6 kmh 29.96 in1014.6 mb - 0.00 in0.0 mm 0.00 in0.0 mm
02:12 AM 48.2°F9.0°C 31.8°F-0.1°C 53% 3.4 mph SW5.5 kmh SW 7.8 mph12.6 kmh 29.96 in1014.6 mb - 0.00 in0.0 mm 0.00 in0.0 mm
02:17 AM 47.7°F8.7°C 31.8°F-0.1°C 54% 3.4 mph SW5.5 kmh SW 7.4 mph11.9 kmh 29.96 in1014.6 mb - 0.00 in0.0 mm 0.00 in0.0 mm
02:22 AM 47.5°F8.6°C 31.6°F-0.2°C 54% 3.1 mph SW5.0 kmh SW 6.0 mph9.7 kmh 29.96 in1014.6 mb - 0.00 in0.0 mm 0.00 in0.0 mm
02:27 AM 47.3°F8.5°C 31.5°F-0.3°C 54% 3.4 mph SSW5.5 kmh SSW 5.4 mph8.7 kmh 29.96 in1014.6 mb - 0.00 in0.0 mm 0.00 in0.0 mm
02:32 AM 47.1°F8.4°C 31.3°F-0.4°C 54% 3.4 mph S5.5 kmh S 5.6 mph9.0 kmh 29.96 in1014.6 mb - 0.00 in0.0 mm 0.00 in0.0 mm
02:37 AM 46.9°F8.3°C 31.6°F-0.2°C 55% 1.3 mph S2.1 kmh S 4.5 mph7.2 kmh 29.96 in1014.6 mb - 0.00 in0.0 mm 0.00 in0.0 mm
02:42 AM 46.8°F8.2°C 31.5°F-0.3°C 55% 3.4 mph SW5.5 kmh SW 5.1 mph8.2 kmh 29.96 in1014.6 mb - 0.00 in0.0 mm 0.00 in0.0 mm
02:47 AM 46.8°F8.2°C 31.5°F-0.3°C 55% 2.7 mph S4.3 kmh S 4.0 mph6.4 kmh 29.96 in1014.6 mb - 0.00 in0.0 mm 0.00 in0.0 mm
02:52 AM 46.6°F8.1°C 31.3°F-0.4°C 55% 2.0 mph SW3.2 kmh SW 3.1 mph5.0 kmh 29.96 in1014.6 mb - 0.00 in0.0 mm 0.00 in0.0 mm
02:57 AM 46.8°F8.2°C 32.0°F0.0°C 56% 0.7 mph SW1.1 kmh SW 2.5 mph4.0 kmh 29.96 in1014.6 mb - 0.00 in0.0 mm 0.00 in0.0 mm
03:02 AM 46.9°F8.3°C 32.2°F0.1°C 56% 1.8 mph SW2.9 kmh SW 4.0 mph6.4 kmh 29.96 in1014.6 mb - 0.00 in0.0 mm 0.00 in0.0 mm
03:07 AM 47.1°F8.4°C 32.7°F0.4°C 57% 4.0 mph SW6.4 kmh SW 6.5 mph10.5 kmh 29.96 in1014.6 mb - 0.00 in0.0 mm 0.00 in0.0 mm
03:12 AM 47.1°F8.4°C 32.7°F0.4°C 57% 4.0 mph WSW6.4 kmh WSW 6.0 mph9.7 kmh 29.96 in1014.6 mb - 0.00 in0.0 mm 0.00 in0.0 mm
03:17 AM 47.3°F8.5°C 32.9°F0.5°C 57% 2.5 mph WSW4.0 kmh WSW 4.7 mph7.6 kmh 29.96 in1014.6 mb - 0.00 in0.0 mm 0.00 in0.0 mm
03:22 AM 47.3°F8.5°C 32.9°F0.5°C 57% 2.9 mph SW4.7 kmh SW 4.9 mph7.9 kmh 29.96 in1014.6 mb - 0.00 in0.0 mm 0.00 in0.0 mm
03:27 AM 47.5°F8.6°C 33.1°F0.6°C 57% 2.5 mph WSW4.0 kmh WSW 2.5 mph4.0 kmh 29.96 in1014.6 mb - 0.00 in0.0 mm 0.00 in0.0 mm
03:32 AM 47.7°F8.7°C 33.3°F0.7°C 57% 2.7 mph SW4.3 kmh SW 4.7 mph7.6 kmh 29.96 in1014.6 mb - 0.00 in0.0 mm 0.00 in0.0 mm
03:37 AM 47.7°F8.7°C 33.3°F0.7°C 57% 0.4 mph SW0.6 kmh SW 2.5 mph4.0 kmh 29.96 in1014.6 mb - 0.00 in0.0 mm 0.00 in0.0 mm
03:42 AM 47.7°F8.7°C 33.3°F0.7°C 57% 0.7 mph SW1.1 kmh SW 3.1 mph5.0 kmh 29.96 in1014.6 mb - 0.00 in0.0 mm 0.00 in0.0 mm
03:47 AM 47.8°F8.8°C 33.4°F0.8°C 57% 0.2 mph SW0.3 kmh SW 2.0 mph3.2 kmh 29.96 in1014.6 mb - 0.00 in0.0 mm 0.00 in0.0 mm
03:52 AM 47.8°F8.8°C 33.4°F0.8°C 57% Calm Calm -- 29.96 in1014.6 mb - 0.00 in0.0 mm 0.00 in0.0 mm
03:57 AM 48.0°F8.9°C 33.1°F0.6°C 56% 0.7 mph SW1.1 kmh SW 3.8 mph6.1 kmh 29.96 in1014.6 mb - 0.00 in0.0 mm 0.00 in0.0 mm
04:02 AM 48.0°F8.9°C 33.1°F0.6°C 56% Calm Calm -- 29.96 in1014.6 mb - 0.00 in0.0 mm 0.00 in0.0 mm
04:07 AM 48.2°F9.0°C 33.3°F0.7°C 56% Calm Calm -- 29.96 in1014.6 mb - 0.00 in0.0 mm 0.00 in0.0 mm
04:12 AM 48.2°F9.0°C 33.3°F0.7°C 56% Calm Calm -- 29.96 in1014.6 mb - 0.00 in0.0 mm 0.00 in0.0 mm
04:17 AM 48.4°F9.1°C 33.4°F0.8°C 56% 0.7 mph SW1.1 kmh SW 5.1 mph8.2 kmh 29.96 in1014.6 mb - 0.00 in0.0 mm 0.00 in0.0 mm
04:22 AM 48.6°F9.2°C 33.6°F0.9°C 56% 0.9 mph W1.4 kmh W 5.8 mph9.3 kmh 29.96 in1014.6 mb - 0.00 in0.0 mm 0.00 in0.0 mm
04:27 AM 48.7°F9.3°C 33.3°F0.7°C 55% 1.6 mph WSW2.6 kmh WSW 5.1 mph8.2 kmh 29.96 in1014.6 mb - 0.00 in0.0 mm 0.00 in0.0 mm
04:32 AM 48.9°F9.4°C 33.4°F0.8°C 55% 1.8 mph WNW2.9 kmh WNW 3.8 mph6.1 kmh 29.96 in1014.6 mb - 0.00 in0.0 mm 0.00 in0.0 mm
04:37 AM 48.9°F9.4°C 33.4°F0.8°C 55% 1.6 mph WSW2.6 kmh WSW 1.6 mph2.6 kmh 29.96 in1014.6 mb - 0.00 in0.0 mm 0.00 in0.0 mm
04:42 AM 48.9°F9.4°C 33.4°F0.8°C 55% 1.6 mph NW2.6 kmh NW 4.5 mph7.2 kmh 29.96 in1014.6 mb - 0.00 in0.0 mm 0.00 in0.0 mm
04:47 AM 48.7°F9.3°C 33.3°F0.7°C 55% Calm Calm -- 29.96 in1014.6 mb - 0.00 in0.0 mm 0.00 in0.0 mm
04:52 AM 48.4°F9.1°C 33.1°F0.6°C 55% Calm Calm -- 29.96 in1014.6 mb - 0.00 in0.0 mm 0.00 in0.0 mm
04:57 AM 48.0°F8.9°C 32.7°F0.4°C 55% Calm Calm -- 29.96 in1014.6 mb - 0.00 in0.0 mm 0.00 in0.0 mm
05:02 AM 47.8°F8.8°C 32.9°F0.5°C 56% Calm Calm -- 29.96 in1014.6 mb - 0.00 in0.0 mm 0.00 in0.0 mm
05:07 AM 47.7°F8.7°C 32.7°F0.4°C 56% Calm Calm -- 29.96 in1014.6 mb - 0.00 in0.0 mm 0.00 in0.0 mm
05:12 AM 47.5°F8.6°C 32.5°F0.3°C 56% Calm Calm -- 29.96 in1014.6 mb - 0.00 in0.0 mm 0.00 in0.0 mm
05:17 AM 47.3°F8.5°C 32.9°F0.5°C 57% Calm Calm -- 29.96 in1014.6 mb - 0.00 in0.0 mm 0.00 in0.0 mm
05:22 AM 46.9°F8.3°C 32.5°F0.3°C 57% Calm Calm -- 29.96 in1014.6 mb - 0.00 in0.0 mm 0.00 in0.0 mm
05:27 AM 46.8°F8.2°C 32.4°F0.2°C 57% Calm Calm -- 29.96 in1014.6 mb - 0.00 in0.0 mm 0.00 in0.0 mm
05:32 AM 46.8°F8.2°C 32.7°F0.4°C 58% Calm Calm -- 29.96 in1014.6 mb - 0.00 in0.0 mm 0.00 in0.0 mm
05:37 AM 46.6°F8.1°C 33.1°F0.6°C 59% Calm Calm -- 29.96 in1014.6 mb - 0.00 in0.0 mm 0.00 in0.0 mm
05:42 AM 46.4°F8.0°C 32.9°F0.5°C 59% Calm Calm -- 29.96 in1014.6 mb - 0.00 in0.0 mm 0.00 in0.0 mm
05:47 AM 46.2°F7.9°C 32.7°F0.4°C 59% Calm Calm -- 29.96 in1014.6 mb - 0.00 in0.0 mm 0.00 in0.0 mm
05:52 AM 46.0°F7.8°C 32.9°F0.5°C 60% Calm Calm -- 29.96 in1014.6 mb - 0.00 in0.0 mm 0.00 in0.0 mm
05:57 AM 46.0°F7.8°C 33.4°F0.8°C 61% Calm Calm -- 29.96 in1014.6 mb - 0.00 in0.0 mm 0.00 in0.0 mm
06:02 AM 45.9°F7.7°C 33.3°F0.7°C 61% Calm Calm -- 29.96 in1014.6 mb - 0.00 in0.0 mm 0.00 in0.0 mm
06:07 AM 45.7°F7.6°C 33.4°F0.8°C 62% Calm Calm -- 29.96 in1014.6 mb - 0.00 in0.0 mm 0.00 in0.0 mm
06:12 AM 45.5°F7.5°C 33.6°F0.9°C 63% Calm Calm -- 29.96 in1014.6 mb - 0.00 in0.0 mm 0.00 in0.0 mm
06:17 AM 45.5°F7.5°C 33.6°F0.9°C 63% 0.9 mph NNE1.4 kmh NNE 2.7 mph4.3 kmh 29.96 in1014.6 mb - 0.00 in0.0 mm 0.00 in0.0 mm
06:22 AM 45.3°F7.4°C 33.4°F0.8°C 63% Calm Calm -- 29.96 in1014.6 mb - 0.00 in0.0 mm 0.00 in0.0 mm
06:27 AM 45.3°F7.4°C 33.8°F1.0°C 64% Calm Calm -- 29.96 in1014.6 mb - 0.00 in0.0 mm 0.00 in0.0 mm
06:32 AM 45.3°F7.4°C 33.8°F1.0°C 64% Calm Calm -- 29.96 in1014.6 mb - 0.00 in0.0 mm 0.00 in0.0 mm
06:37 AM 45.1°F7.3°C 33.8°F1.0°C 64% Calm Calm -- 29.96 in1014.6 mb - 0.00 in0.0 mm 0.00 in0.0 mm
06:42 AM 45.0°F7.2°C 33.6°F0.9°C 64% Calm Calm -- 29.96 in1014.6 mb - 0.00 in0.0 mm 0.00 in0.0 mm
06:47 AM 45.0°F7.2°C 34.0°F1.1°C 65% Calm Calm -- 29.96 in1014.6 mb - 0.00 in0.0 mm 0.00 in0.0 mm
06:52 AM 44.8°F7.1°C 33.8°F1.0°C 65% Calm Calm -- 29.96 in1014.6 mb - 0.00 in0.0 mm 0.00 in0.0 mm
06:57 AM 44.6°F7.0°C 33.6°F0.9°C 65% Calm Calm -- 29.96 in1014.6 mb - 0.00 in0.0 mm 0.00 in0.0 mm
07:02 AM 44.6°F7.0°C 33.6°F0.9°C 65% Calm Calm -- 29.96 in1014.6 mb - 0.00 in0.0 mm 0.00 in0.0 mm
07:07 AM 44.4°F6.9°C 33.4°F0.8°C 65% Calm Calm -- 29.96 in1014.6 mb - 0.00 in0.0 mm 0.00 in0.0 mm
07:12 AM 44.2°F6.8°C 33.3°F0.7°C 65% Calm Calm -- 29.96 in1014.6 mb - 0.00 in0.0 mm 0.00 in0.0 mm
07:17 AM 44.1°F6.7°C 33.1°F0.6°C 65% Calm Calm -- 29.96 in1014.6 mb - 0.00 in0.0 mm 0.00 in0.0 mm
07:22 AM 43.9°F6.6°C 32.9°F0.5°C 65% Calm Calm -- 29.96 in1014.6 mb - 0.00 in0.0 mm 0.00 in0.0 mm
07:27 AM 43.9°F6.6°C 33.3°F0.7°C 66% Calm Calm -- 29.96 in1014.6 mb - 0.00 in0.0 mm 0.00 in0.0 mm
07:32 AM 43.9°F6.6°C 33.6°F0.9°C 67% Calm Calm -- 29.96 in1014.6 mb - 0.00 in0.0 mm 0.00 in0.0 mm
07:37 AM 43.9°F6.6°C 33.6°F0.9°C 67% Calm Calm -- 29.96 in1014.6 mb - 0.00 in0.0 mm 0.00 in0.0 mm
07:42 AM 43.9°F6.6°C 33.6°F0.9°C 67% Calm Calm -- 29.96 in1014.6 mb - 0.00 in0.0 mm 0.00 in0.0 mm
07:47 AM 44.1°F6.7°C 33.8°F1.0°C 67% Calm Calm -- 29.96 in1014.6 mb - 0.00 in0.0 mm 0.00 in0.0 mm
07:52 AM 44.2°F6.8°C 34.3°F1.3°C 68% Calm Calm -- 29.96 in1014.6 mb - 0.00 in0.0 mm 0.00 in0.0 mm
07:57 AM 44.4°F6.9°C 34.5°F1.4°C 68% Calm Calm -- 29.96 in1014.6 mb - 0.00 in0.0 mm 0.00 in0.0 mm
08:02 AM 44.6°F7.0°C 35.1°F1.7°C 69% Calm Calm -- 29.96 in1014.6 mb - 0.00 in0.0 mm 0.00 in0.0 mm
08:07 AM 44.6°F7.0°C 35.1°F1.7°C 69% 0.2 mph NNE0.3 kmh NNE 3.1 mph5.0 kmh 29.96 in1014.6 mb - 0.00 in0.0 mm 0.00 in0.0 mm
08:12 AM 44.6°F7.0°C 35.1°F1.7°C 69% 0.2 mph N0.3 kmh N 5.8 mph9.3 kmh 29.96 in1014.6 mb - 0.00 in0.0 mm 0.00 in0.0 mm
08:17 AM 44.6°F7.0°C 35.8°F2.1°C 71% 1.1 mph N1.8 kmh N 2.9 mph4.7 kmh 29.96 in1014.6 mb - 0.00 in0.0 mm 0.00 in0.0 mm
08:22 AM 44.8°F7.1°C 35.6°F2.0°C 70% Calm Calm -- 29.96 in1014.6 mb - 0.00 in0.0 mm 0.00 in0.0 mm
08:27 AM 45.0°F7.2°C 35.8°F2.1°C 70% Calm Calm -- 29.96 in1014.6 mb - 0.00 in0.0 mm 0.00 in0.0 mm
08:32 AM 45.1°F7.3°C 36.0°F2.2°C 70% Calm Calm -- 29.96 in1014.6 mb - 0.00 in0.0 mm 0.00 in0.0 mm
08:37 AM 45.3°F7.4°C 36.1°F2.3°C 70% Calm Calm -- 29.96 in1014.6 mb - 0.00 in0.0 mm 0.00 in0.0 mm
08:42 AM 45.5°F7.5°C 36.3°F2.4°C 70% Calm Calm -- 29.96 in1014.6 mb - 0.00 in0.0 mm 0.00 in0.0 mm
08:47 AM 45.9°F7.7°C 36.7°F2.6°C 70% Calm Calm -- 29.96 in1014.6 mb - 0.00 in0.0 mm 0.00 in0.0 mm
08:52 AM 46.2°F7.9°C 37.0°F2.8°C 70% 0.2 mph SW0.3 kmh SW 0.9 mph1.4 kmh 29.96 in1014.6 mb - 0.00 in0.0 mm 0.00 in0.0 mm
08:57 AM 46.4°F8.0°C 36.9°F2.7°C 69% Calm Calm -- 29.96 in1014.6 mb - 0.00 in0.0 mm 0.00 in0.0 mm
09:02 AM 46.8°F8.2°C 37.2°F2.9°C 69% Calm Calm -- 29.99 in1015.6 mb - 0.00 in0.0 mm 0.00 in0.0 mm
09:07 AM 46.9°F8.3°C 37.4°F3.0°C 69% Calm Calm -- 29.99 in1015.6 mb - 0.00 in0.0 mm 0.00 in0.0 mm
09:12 AM 47.3°F8.5°C 37.2°F2.9°C 68% 0.4 mph N0.6 kmh N 2.0 mph3.2 kmh 29.99 in1015.6 mb - 0.00 in0.0 mm 0.00 in0.0 mm
09:17 AM 47.7°F8.7°C 37.6°F3.1°C 68% Calm Calm -- 29.99 in1015.6 mb - 0.00 in0.0 mm 0.00 in0.0 mm
09:22 AM 47.8°F8.8°C 37.8°F3.2°C 68% Calm Calm -- 29.99 in1015.6 mb - 0.00 in0.0 mm 0.00 in0.0 mm
09:27 AM 48.0°F8.9°C 37.9°F3.3°C 68% Calm Calm -- 29.99 in1015.6 mb - 0.00 in0.0 mm 0.00 in0.0 mm
09:32 AM 48.4°F9.1°C 37.9°F3.3°C 67% 0.7 mph N1.1 kmh N 3.4 mph5.5 kmh 29.99 in1015.6 mb - 0.00 in0.0 mm 0.00 in0.0 mm
09:37 AM 48.7°F9.3°C 37.9°F3.3°C 66% Calm Calm -- 29.99 in1015.6 mb - 0.00 in0.0 mm 0.00 in0.0 mm
09:42 AM 48.9°F9.4°C 38.1°F3.4°C 66% Calm Calm -- 29.99 in1015.6 mb - 0.00 in0.0 mm 0.00 in0.0 mm
09:47 AM 49.5°F9.7°C 37.8°F3.2°C 64% Calm Calm -- 29.99 in1015.6 mb - 0.00 in0.0 mm 0.00 in0.0 mm
09:52 AM 49.8°F9.9°C 38.1°F3.4°C 64% Calm Calm -- 29.99 in1015.6 mb - 0.00 in0.0 mm 0.00 in0.0 mm
09:57 AM 50.0°F10.0°C 38.3°F3.5°C 64% Calm Calm -- 29.99 in1015.6 mb - 0.00 in0.0 mm 0.00 in0.0 mm
10:02 AM 50.4°F10.2°C 37.9°F3.3°C 62% Calm Calm -- 30.01 in1016.3 mb - 0.00 in0.0 mm 0.00 in0.0 mm
10:07 AM 50.5°F10.3°C 37.6°F3.1°C 61% 1.8 mph ENE2.9 kmh ENE 3.1 mph5.0 kmh 30.01 in1016.3 mb - 0.00 in0.0 mm 0.00 in0.0 mm
10:12 AM 50.7°F10.4°C 37.8°F3.2°C 61% 1.8 mph ENE2.9 kmh ENE 3.4 mph5.5 kmh 30.01 in1016.3 mb - 0.00 in0.0 mm 0.00 in0.0 mm
10:17 AM 51.1°F10.6°C 38.1°F3.4°C 61% 1.3 mph E2.1 kmh E 4.0 mph6.4 kmh 29.99 in1015.6 mb - 0.00 in0.0 mm 0.00 in0.0 mm
10:22 AM 51.3°F10.7°C 37.9°F3.3°C 60% 0.4 mph NE0.6 kmh NE 3.1 mph5.0 kmh 29.99 in1015.6 mb - 0.00 in0.0 mm 0.00 in0.0 mm
10:27 AM 51.6°F10.9°C 37.8°F3.2°C 59% 0.7 mph E1.1 kmh E 3.8 mph6.1 kmh 29.99 in1015.6 mb - 0.00 in0.0 mm 0.00 in0.0 mm
10:32 AM 51.8°F11.0°C 37.9°F3.3°C 59% 0.7 mph SE1.1 kmh SE 3.6 mph5.8 kmh 29.99 in1015.6 mb - 0.00 in0.0 mm 0.00 in0.0 mm
10:37 AM 52.2°F11.2°C 38.3°F3.5°C 59% 0.4 mph NE0.6 kmh NE 2.9 mph4.7 kmh 29.99 in1015.6 mb - 0.00 in0.0 mm 0.00 in0.0 mm
10:42 AM 52.3°F11.3°C 37.6°F3.1°C 57% Calm Calm -- 29.99 in1015.6 mb - 0.00 in0.0 mm 0.00 in0.0 mm
10:47 AM 52.3°F11.3°C 37.6°F3.1°C 57% Calm Calm -- 29.99 in1015.6 mb - 0.00 in0.0 mm 0.00 in0.0 mm
10:52 AM 52.3°F11.3°C 37.2°F2.9°C 56% 2.0 mph NW3.2 kmh NW 4.7 mph7.6 kmh 29.99 in1015.6 mb - 0.00 in0.0 mm 0.00 in0.0 mm
10:57 AM 52.5°F11.4°C 37.2°F2.9°C 56% 2.7 mph NNW4.3 kmh NNW 7.8 mph12.6 kmh 29.99 in1015.6 mb - 0.00 in0.0 mm 0.00 in0.0 mm
11:02 AM 52.5°F11.4°C 36.9°F2.7°C 55% 2.7 mph N4.3 kmh N 9.2 mph14.8 kmh 29.99 in1015.6 mb - 0.00 in0.0 mm 0.00 in0.0 mm
11:07 AM 52.7°F11.5°C 36.5°F2.5°C 54% 4.3 mph N6.9 kmh N 8.1 mph13.0 kmh 29.99 in1015.6 mb - 0.00 in0.0 mm 0.00 in0.0 mm
11:12 AM 52.9°F11.6°C 37.2°F2.9°C 55% 5.4 mph N8.7 kmh N 8.3 mph13.4 kmh 29.99 in1015.6 mb - 0.00 in0.0 mm 0.00 in0.0 mm
11:17 AM 53.1°F11.7°C 37.4°F3.0°C 55% 5.4 mph N8.7 kmh N 9.4 mph15.1 kmh 29.99 in1015.6 mb - 0.00 in0.0 mm 0.00 in0.0 mm
11:22 AM 53.2°F11.8°C 37.6°F3.1°C 55% 3.6 mph NNW5.8 kmh NNW 8.3 mph13.4 kmh 29.99 in1015.6 mb - 0.00 in0.0 mm 0.00 in0.0 mm
11:27 AM 53.4°F11.9°C 37.8°F3.2°C 55% 4.9 mph N7.9 kmh N 8.7 mph14.0 kmh 29.99 in1015.6 mb - 0.00 in0.0 mm 0.00 in0.0 mm
11:32 AM 53.4°F11.9°C 37.2°F2.9°C 54% 4.3 mph N6.9 kmh N 4.3 mph6.9 kmh 29.99 in1015.6 mb - 0.00 in0.0 mm 0.00 in0.0 mm
11:37 AM 53.2°F11.8°C 36.5°F2.5°C 53% 4.7 mph WNW7.6 kmh WNW 8.5 mph13.7 kmh 29.99 in1015.6 mb - 0.00 in0.0 mm 0.00 in0.0 mm
11:42 AM 53.2°F11.8°C 37.0°F2.8°C 54% 6.0 mph NW9.7 kmh NW 10.1 mph16.3 kmh 29.99 in1015.6 mb - 0.00 in0.0 mm 0.00 in0.0 mm
11:47 AM 53.2°F11.8°C 37.0°F2.8°C 54% 4.9 mph WNW7.9 kmh WNW 9.8 mph15.8 kmh 29.99 in1015.6 mb - 0.00 in0.0 mm 0.00 in0.0 mm
11:52 AM 53.6°F12.0°C 37.4°F3.0°C 54% 4.9 mph WNW7.9 kmh WNW 9.2 mph14.8 kmh 29.99 in1015.6 mb - 0.00 in0.0 mm 0.00 in0.0 mm
11:57 AM 54.0°F12.2°C 37.8°F3.2°C 54% 4.5 mph W7.2 kmh W 9.6 mph15.4 kmh 29.99 in1015.6 mb - 0.00 in0.0 mm 0.00 in0.0 mm
12:02 PM 54.3°F12.4°C 37.6°F3.1°C 53% 5.1 mph NW8.2 kmh NW 9.8 mph15.8 kmh 29.99 in1015.6 mb - 0.00 in0.0 mm 0.00 in0.0 mm
12:07 PM 54.1°F12.3°C 37.4°F3.0°C 53% 3.8 mph NW6.1 kmh NW 9.2 mph14.8 kmh 29.99 in1015.6 mb - 0.00 in0.0 mm 0.00 in0.0 mm
12:12 PM 54.7°F12.6°C 37.9°F3.3°C 53% 5.1 mph W8.2 kmh W 8.5 mph13.7 kmh 29.99 in1015.6 mb - 0.00 in0.0 mm 0.00 in0.0 mm
12:17 PM 55.0°F12.8°C 37.8°F3.2°C 52% 4.3 mph W6.9 kmh W 4.3 mph6.9 kmh 29.99 in1015.6 mb - 0.00 in0.0 mm 0.00 in0.0 mm
12:22 PM 55.4°F13.0°C 38.1°F3.4°C 52% 7.4 mph WSW11.9 kmh WSW 12.8 mph20.6 kmh 29.99 in1015.6 mb - 0.00 in0.0 mm 0.00 in0.0 mm
12:27 PM 56.1°F13.4°C 38.8°F3.8°C 52% 6.3 mph WNW10.1 kmh WNW 10.5 mph16.9 kmh 29.99 in1015.6 mb - 0.00 in0.0 mm 0.00 in0.0 mm
12:32 PM 57.0°F13.9°C 39.6°F4.2°C 52% 3.4 mph WNW5.5 kmh WNW 9.6 mph15.4 kmh 29.99 in1015.6 mb - 0.00 in0.0 mm 0.00 in0.0 mm
12:37 PM 56.5°F13.6°C 38.7°F3.7°C 51% 5.1 mph 8.2 kmh 12.5 mph20.1 kmh 29.99 in1015.6 mb - 0.00 in0.0 mm 0.00 in0.0 mm
12:42 PM 56.1°F13.4°C 38.3°F3.5°C 51% 6.7 mph NW10.8 kmh NW 11.6 mph18.7 kmh 29.99 in1015.6 mb - 0.00 in0.0 mm 0.00 in0.0 mm
12:47 PM 56.5°F13.6°C 39.0°F3.9°C 52% 4.3 mph NW6.9 kmh NW 8.5 mph13.7 kmh 29.99 in1015.6 mb - 0.00 in0.0 mm 0.00 in0.0 mm
12:52 PM 56.3°F13.5°C 38.5°F3.6°C 51% 4.3 mph N6.9 kmh N 12.3 mph19.8 kmh 29.99 in1015.6 mb - 0.00 in0.0 mm 0.00 in0.0 mm
12:57 PM 56.3°F13.5°C 38.5°F3.6°C 51% 6.5 mph W10.5 kmh W 11.6 mph18.7 kmh 29.99 in1015.6 mb - 0.00 in0.0 mm 0.00 in0.0 mm
01:02 PM 55.4°F13.0°C 38.1°F3.4°C 52% 3.8 mph NW6.1 kmh NW 9.2 mph14.8 kmh 29.99 in1015.6 mb - 0.00 in0.0 mm 0.00 in0.0 mm
01:07 PM 55.4°F13.0°C 38.1°F3.4°C 52% 6.7 mph NW10.8 kmh NW 10.5 mph16.9 kmh 29.99 in1015.6 mb - 0.00 in0.0 mm 0.00 in0.0 mm
01:12 PM 55.4°F13.0°C 38.1°F3.4°C 52% 5.4 mph NW8.7 kmh NW 10.7 mph17.2 kmh 29.99 in1015.6 mb - 0.00 in0.0 mm 0.00 in0.0 mm
01:17 PM 55.9°F13.3°C 38.7°F3.7°C 52% 6.7 mph WNW10.8 kmh WNW 11.4 mph18.3 kmh 29.96 in1014.6 mb - 0.00 in0.0 mm 0.00 in0.0 mm
01:22 PM 56.1°F13.4°C 38.8°F3.8°C 52% 4.7 mph N7.6 kmh N 9.8 mph15.8 kmh 29.96 in1014.6 mb - 0.00 in0.0 mm 0.00 in0.0 mm
01:27 PM 55.9°F13.3°C 38.7°F3.7°C 52% 5.8 mph WSW9.3 kmh WSW 10.5 mph16.9 kmh 29.96 in1014.6 mb - 0.00 in0.0 mm 0.00 in0.0 mm
01:37 PM 56.3°F13.5°C 37.9°F3.3°C 50% 6.3 mph WNW10.1 kmh WNW 10.1 mph16.3 kmh 29.96 in1014.6 mb - 0.00 in0.0 mm 0.00 in0.0 mm
01:42 PM 56.1°F13.4°C 37.8°F3.2°C 50% 4.7 mph WNW7.6 kmh WNW 9.6 mph15.4 kmh 29.96 in1014.6 mb - 0.00 in0.0 mm 0.00 in0.0 mm
01:47 PM 55.9°F13.3°C 37.6°F3.1°C 50% 4.7 mph NW7.6 kmh NW 8.5 mph13.7 kmh 29.96 in1014.6 mb - 0.00 in0.0 mm 0.00 in0.0 mm
01:52 PM 55.9°F13.3°C 37.6°F3.1°C 50% 4.0 mph W6.4 kmh W 7.6 mph12.2 kmh 29.96 in1014.6 mb - 0.00 in0.0 mm 0.00 in0.0 mm
01:57 PM 56.1°F13.4°C 37.8°F3.2°C 50% 4.7 mph W7.6 kmh W 9.2 mph14.8 kmh 29.96 in1014.6 mb - 0.00 in0.0 mm 0.00 in0.0 mm
02:02 PM 56.5°F13.6°C 38.1°F3.4°C 50% 5.8 mph NW9.3 kmh NW 10.3 mph16.6 kmh 29.96 in1014.6 mb - 0.00 in0.0 mm 0.00 in0.0 mm
02:07 PM 57.0°F13.9°C 39.0°F3.9°C 51% 4.0 mph WNW6.4 kmh WNW 8.1 mph13.0 kmh 29.96 in1014.6 mb - 0.00 in0.0 mm 0.00 in0.0 mm
02:12 PM 57.7°F14.3°C 39.2°F4.0°C 50% 4.9 mph WNW7.9 kmh WNW 11.9 mph19.2 kmh 29.96 in1014.6 mb - 0.00 in0.0 mm 0.00 in0.0 mm
02:17 PM 57.6°F14.2°C 37.0°F2.8°C 46% 5.6 mph N9.0 kmh N 10.7 mph17.2 kmh 29.96 in1014.6 mb - 0.00 in0.0 mm 0.00 in0.0 mm
02:22 PM 58.1°F14.5°C 38.5°F3.6°C 48% 6.5 mph WNW10.5 kmh WNW 15.4 mph24.8 kmh 29.96 in1014.6 mb - 0.00 in0.0 mm 0.00 in0.0 mm
02:27 PM 57.7°F14.3°C 38.7°F3.7°C 49% 7.4 mph W11.9 kmh W 13.9 mph22.4 kmh 29.96 in1014.6 mb - 0.00 in0.0 mm 0.00 in0.0 mm
02:32 PM 57.2°F14.0°C 37.8°F3.2°C 48% 8.1 mph NW13.0 kmh NW 14.3 mph23.0 kmh 29.96 in1014.6 mb - 0.00 in0.0 mm 0.00 in0.0 mm
02:37 PM 57.2°F14.0°C 37.8°F3.2°C 48% 6.9 mph NW11.1 kmh NW 13.2 mph21.2 kmh 29.96 in1014.6 mb - 0.00 in0.0 mm 0.00 in0.0 mm
02:42 PM 57.6°F14.2°C 38.1°F3.4°C 48% 6.7 mph NW10.8 kmh NW 11.2 mph18.0 kmh 29.96 in1014.6 mb - 0.00 in0.0 mm 0.00 in0.0 mm
02:47 PM 57.6°F14.2°C 38.1°F3.4°C 48% 6.5 mph W10.5 kmh W 13.0 mph20.9 kmh 29.93 in1013.5 mb - 0.00 in0.0 mm 0.00 in0.0 mm
02:52 PM 58.1°F14.5°C 39.0°F3.9°C 49% 7.6 mph NW12.2 kmh NW 15.2 mph24.5 kmh 29.93 in1013.5 mb - 0.00 in0.0 mm 0.00 in0.0 mm
02:57 PM 58.1°F14.5°C 39.0°F3.9°C 49% 3.1 mph NW5.0 kmh NW 7.8 mph12.6 kmh 29.93 in1013.5 mb - 0.00 in0.0 mm 0.00 in0.0 mm
03:02 PM 58.5°F14.7°C 39.4°F4.1°C 49% 7.4 mph WNW11.9 kmh WNW 13.9 mph22.4 kmh 29.93 in1013.5 mb - 0.00 in0.0 mm 0.00 in0.0 mm
03:07 PM 58.1°F14.5°C 37.9°F3.3°C 47% 4.7 mph NNW7.6 kmh NNW 10.5 mph16.9 kmh 29.93 in1013.5 mb - 0.00 in0.0 mm 0.00 in0.0 mm
03:12 PM 58.1°F14.5°C 37.9°F3.3°C 47% 5.1 mph WSW8.2 kmh WSW 12.1 mph19.5 kmh 29.93 in1013.5 mb - 0.00 in0.0 mm 0.00 in0.0 mm
03:17 PM 58.1°F14.5°C 37.9°F3.3°C 47% 6.0 mph N9.7 kmh N 11.6 mph18.7 kmh 29.93 in1013.5 mb - 0.00 in0.0 mm 0.00 in0.0 mm
03:22 PM 58.1°F14.5°C 37.9°F3.3°C 47% 6.0 mph W9.7 kmh W 13.4 mph21.6 kmh 29.93 in1013.5 mb - 0.00 in0.0 mm 0.00 in0.0 mm
03:27 PM 57.7°F14.3°C 38.3°F3.5°C 48% 6.7 mph NW10.8 kmh NW 13.2 mph21.2 kmh 29.93 in1013.5 mb - 0.00 in0.0 mm 0.00 in0.0 mm
03:32 PM 57.9°F14.4°C 38.8°F3.8°C 49% 7.4 mph NW11.9 kmh NW 14.1 mph22.7 kmh 29.93 in1013.5 mb - 0.00 in0.0 mm 0.00 in0.0 mm
03:37 PM 57.7°F14.3°C 38.3°F3.5°C 48% 5.8 mph WNW9.3 kmh WNW 13.6 mph21.9 kmh 29.93 in1013.5 mb - 0.00 in0.0 mm 0.00 in0.0 mm
03:42 PM 57.6°F14.2°C 38.1°F3.4°C 48% 5.8 mph NW9.3 kmh NW 11.9 mph19.2 kmh 29.93 in1013.5 mb - 0.00 in0.0 mm 0.00 in0.0 mm
03:47 PM 57.6°F14.2°C 38.1°F3.4°C 48% 4.5 mph NW7.2 kmh NW 8.7 mph14.0 kmh 29.93 in1013.5 mb - 0.00 in0.0 mm 0.00 in0.0 mm
03:52 PM 58.1°F14.5°C 38.5°F3.6°C 48% 5.8 mph 9.3 kmh 10.7 mph17.2 kmh 29.93 in1013.5 mb - 0.00 in0.0 mm 0.00 in0.0 mm
03:57 PM 58.3°F14.6°C 38.7°F3.7°C 48% 3.6 mph NW5.8 kmh NW 7.6 mph12.2 kmh 29.93 in1013.5 mb - 0.00 in0.0 mm 0.00 in0.0 mm
04:02 PM 58.5°F14.7°C 38.8°F3.8°C 48% 2.2 mph W3.5 kmh W 12.3 mph19.8 kmh 29.93 in1013.5 mb - 0.00 in0.0 mm 0.00 in0.0 mm
04:07 PM 58.3°F14.6°C 38.7°F3.7°C 48% 6.0 mph N9.7 kmh N 12.8 mph20.6 kmh 29.93 in1013.5 mb - 0.00 in0.0 mm 0.00 in0.0 mm
04:12 PM 57.9°F14.4°C 37.8°F3.2°C 47% 4.5 mph NW7.2 kmh NW 10.7 mph17.2 kmh 29.93 in1013.5 mb - 0.00 in0.0 mm 0.00 in0.0 mm
04:17 PM 58.3°F14.6°C 38.7°F3.7°C 48% 7.4 mph W11.9 kmh W 12.8 mph20.6 kmh 29.93 in1013.5 mb - 0.00 in0.0 mm 0.00 in0.0 mm
04:22 PM 57.7°F14.3°C 37.8°F3.2°C 47% 4.5 mph WNW7.2 kmh WNW 10.5 mph16.9 kmh 29.93 in1013.5 mb - 0.00 in0.0 mm 0.00 in0.0 mm
04:27 PM 57.2°F14.0°C 37.8°F3.2°C 48% 6.7 mph NW10.8 kmh NW 13.0 mph20.9 kmh 29.93 in1013.5 mb - 0.00 in0.0 mm 0.00 in0.0 mm
04:32 PM 57.2°F14.0°C 37.8°F3.2°C 48% 4.7 mph N7.6 kmh N 10.3 mph16.6 kmh 29.93 in1013.5 mb - 0.00 in0.0 mm 0.00 in0.0 mm
04:37 PM 57.0°F13.9°C 37.6°F3.1°C 48% 4.3 mph W6.9 kmh W 7.4 mph11.9 kmh 29.93 in1013.5 mb - 0.00 in0.0 mm 0.00 in0.0 mm
04:42 PM 57.0°F13.9°C 37.6°F3.1°C 48% 5.1 mph NW8.2 kmh NW 11.6 mph18.7 kmh 29.93 in1013.5 mb - 0.00 in0.0 mm 0.00 in0.0 mm
04:47 PM 57.0°F13.9°C 37.6°F3.1°C 48% 2.7 mph N4.3 kmh N 8.1 mph13.0 kmh 29.93 in1013.5 mb - 0.00 in0.0 mm 0.00 in0.0 mm
04:52 PM 57.0°F13.9°C 37.6°F3.1°C 48% 2.5 mph NNW4.0 kmh NNW 5.8 mph9.3 kmh 29.93 in1013.5 mb - 0.00 in0.0 mm 0.00 in0.0 mm
04:57 PM 57.2°F14.0°C 37.8°F3.2°C 48% 5.1 mph WNW8.2 kmh WNW 9.8 mph15.8 kmh 29.93 in1013.5 mb - 0.00 in0.0 mm 0.00 in0.0 mm
05:02 PM 57.6°F14.2°C 38.7°F3.7°C 49% 2.2 mph NNW3.5 kmh NNW 6.3 mph10.1 kmh 29.93 in1013.5 mb - 0.00 in0.0 mm 0.00 in0.0 mm
05:07 PM 57.6°F14.2°C 38.7°F3.7°C 49% 3.1 mph NW5.0 kmh NW 7.4 mph11.9 kmh 29.93 in1013.5 mb - 0.00 in0.0 mm 0.00 in0.0 mm
05:12 PM 57.4°F14.1°C 37.9°F3.3°C 48% 3.4 mph NNE5.5 kmh NNE 8.9 mph14.3 kmh 29.93 in1013.5 mb - 0.00 in0.0 mm 0.00 in0.0 mm
05:17 PM 57.4°F14.1°C 38.5°F3.6°C 49% 4.7 mph NNW7.6 kmh NNW 10.3 mph16.6 kmh 29.93 in1013.5 mb - 0.00 in0.0 mm 0.00 in0.0 mm
05:22 PM 57.2°F14.0°C 38.3°F3.5°C 49% 4.0 mph NE6.4 kmh NE 9.6 mph15.4 kmh 29.93 in1013.5 mb - 0.00 in0.0 mm 0.00 in0.0 mm
05:27 PM 56.8°F13.8°C 37.4°F3.0°C 48% 3.4 mph N5.5 kmh N 7.8 mph12.6 kmh 29.93 in1013.5 mb - 0.00 in0.0 mm 0.00 in0.0 mm
05:32 PM 57.0°F13.9°C 38.1°F3.4°C 49% 4.5 mph NNW7.2 kmh NNW 7.2 mph11.6 kmh 29.93 in1013.5 mb - 0.00 in0.0 mm 0.00 in0.0 mm
05:37 PM 57.0°F13.9°C 37.6°F3.1°C 48% 1.8 mph N2.9 kmh N 7.8 mph12.6 kmh 29.93 in1013.5 mb - 0.00 in0.0 mm 0.00 in0.0 mm
05:42 PM 57.0°F13.9°C 37.6°F3.1°C 48% 3.1 mph NE5.0 kmh NE 8.7 mph14.0 kmh 29.93 in1013.5 mb - 0.00 in0.0 mm 0.00 in0.0 mm
05:47 PM 57.0°F13.9°C 37.6°F3.1°C 48% 4.7 mph N7.6 kmh N 10.5 mph16.9 kmh 29.96 in1014.6 mb - 0.00 in0.0 mm 0.00 in0.0 mm
05:52 PM 56.7°F13.7°C 37.2°F2.9°C 48% 2.9 mph NNW4.7 kmh NNW 6.3 mph10.1 kmh 29.96 in1014.6 mb - 0.00 in0.0 mm 0.00 in0.0 mm
05:57 PM 56.5°F13.6°C 37.6°F3.1°C 49% 3.1 mph NNE5.0 kmh NNE 6.0 mph9.7 kmh 29.96 in1014.6 mb - 0.00 in0.0 mm 0.00 in0.0 mm
06:02 PM 56.7°F13.7°C 37.8°F3.2°C 49% 2.5 mph NE4.0 kmh NE 5.1 mph8.2 kmh 29.93 in1013.5 mb - 0.00 in0.0 mm 0.00 in0.0 mm
06:07 PM 56.5°F13.6°C 37.6°F3.1°C 49% 3.6 mph W5.8 kmh W 6.0 mph9.7 kmh 29.93 in1013.5 mb - 0.00 in0.0 mm 0.00 in0.0 mm
06:12 PM 56.3°F13.5°C 37.4°F3.0°C 49% 2.9 mph NNE4.7 kmh NNE 7.2 mph11.6 kmh 29.93 in1013.5 mb - 0.00 in0.0 mm 0.00 in0.0 mm
06:17 PM 56.1°F13.4°C 37.2°F2.9°C 49% 2.0 mph NW3.2 kmh NW 4.7 mph7.6 kmh 29.96 in1014.6 mb - 0.00 in0.0 mm 0.00 in0.0 mm
06:22 PM 55.6°F13.1°C 36.7°F2.6°C 49% 1.8 mph NE2.9 kmh NE 1.8 mph2.9 kmh 29.96 in1014.6 mb - 0.00 in0.0 mm 0.00 in0.0 mm
06:27 PM 55.4°F13.0°C 36.5°F2.5°C 49% 3.8 mph N6.1 kmh N 9.4 mph15.1 kmh 29.96 in1014.6 mb - 0.00 in0.0 mm 0.00 in0.0 mm
06:32 PM 55.2°F12.9°C 36.5°F2.5°C 49% 2.7 mph NNE4.3 kmh NNE 6.9 mph11.1 kmh 29.96 in1014.6 mb - 0.00 in0.0 mm 0.00 in0.0 mm
06:37 PM 54.9°F12.7°C 36.1°F2.3°C 49% 0.9 mph N1.4 kmh N 2.7 mph4.3 kmh 29.96 in1014.6 mb - 0.00 in0.0 mm 0.00 in0.0 mm
06:42 PM 54.5°F12.5°C 36.3°F2.4°C 50% Calm Calm -- 29.96 in1014.6 mb - 0.00 in0.0 mm 0.00 in0.0 mm
06:47 PM 54.3°F12.4°C 36.1°F2.3°C 50% 1.6 mph NW2.6 kmh NW 7.4 mph11.9 kmh 29.96 in1014.6 mb - 0.00 in0.0 mm 0.00 in0.0 mm
06:52 PM 54.3°F12.4°C 36.1°F2.3°C 50% 2.0 mph N3.2 kmh N 4.3 mph6.9 kmh 29.96 in1014.6 mb - 0.00 in0.0 mm 0.00 in0.0 mm
06:57 PM 53.6°F12.0°C 36.0°F2.2°C 51% 1.3 mph N2.1 kmh N 4.0 mph6.4 kmh 29.96 in1014.6 mb - 0.00 in0.0 mm 0.00 in0.0 mm
07:02 PM 53.4°F11.9°C 35.8°F2.1°C 51% 2.5 mph N4.0 kmh N 2.5 mph4.0 kmh 29.96 in1014.6 mb - 0.00 in0.0 mm 0.00 in0.0 mm
07:07 PM 53.1°F11.7°C 35.4°F1.9°C 51% 2.0 mph N3.2 kmh N 4.7 mph7.6 kmh 29.96 in1014.6 mb - 0.00 in0.0 mm 0.00 in0.0 mm
07:12 PM 52.5°F11.4°C 35.4°F1.9°C 52% 1.8 mph N2.9 kmh N 4.3 mph6.9 kmh 29.96 in1014.6 mb - 0.00 in0.0 mm 0.00 in0.0 mm
07:17 PM 51.8°F11.0°C 34.7°F1.5°C 52% 1.8 mph NNW2.9 kmh NNW 3.8 mph6.1 kmh 29.96 in1014.6 mb - 0.00 in0.0 mm 0.00 in0.0 mm
07:22 PM 51.1°F10.6°C 34.2°F1.2°C 52% 1.8 mph NW2.9 kmh NW 2.7 mph4.3 kmh 29.96 in1014.6 mb - 0.00 in0.0 mm 0.00 in0.0 mm
07:27 PM 50.5°F10.3°C 34.2°F1.2°C 53% 0.2 mph NNW0.3 kmh NNW 2.5 mph4.0 kmh 29.96 in1014.6 mb - 0.00 in0.0 mm 0.00 in0.0 mm
07:32 PM 50.0°F10.0°C 34.5°F1.4°C 55% 0.7 mph NNW1.1 kmh NNW 2.7 mph4.3 kmh 29.96 in1014.6 mb - 0.00 in0.0 mm 0.00 in0.0 mm
07:37 PM 49.3°F9.6°C 34.3°F1.3°C 56% 1.6 mph NW2.6 kmh NW 3.8 mph6.1 kmh 29.96 in1014.6 mb - 0.00 in0.0 mm 0.00 in0.0 mm
07:42 PM 48.9°F9.4°C 34.3°F1.3°C 57% 1.8 mph NNW2.9 kmh NNW 3.1 mph5.0 kmh 29.96 in1014.6 mb - 0.00 in0.0 mm 0.00 in0.0 mm
07:47 PM 48.7°F9.3°C 34.2°F1.2°C 57% 2.5 mph NW4.0 kmh NW 3.8 mph6.1 kmh 29.96 in1014.6 mb - 0.00 in0.0 mm 0.00 in0.0 mm
07:52 PM 48.4°F9.1°C 34.3°F1.3°C 58% 1.3 mph NW2.1 kmh NW 2.7 mph4.3 kmh 29.96 in1014.6 mb - 0.00 in0.0 mm 0.00 in0.0 mm
07:57 PM 48.2°F9.0°C 34.2°F1.2°C 58% 0.2 mph SSE0.3 kmh SSE 2.2 mph3.5 kmh 29.96 in1014.6 mb - 0.00 in0.0 mm 0.00 in0.0 mm
08:02 PM 48.0°F8.9°C 34.3°F1.3°C 59% 0.4 mph S0.6 kmh S 0.4 mph0.6 kmh 29.96 in1014.6 mb - 0.00 in0.0 mm 0.00 in0.0 mm
08:07 PM 47.8°F8.8°C 34.2°F1.2°C 59% 2.7 mph SW4.3 kmh SW 3.4 mph5.5 kmh 29.96 in1014.6 mb - 0.00 in0.0 mm 0.00 in0.0 mm
08:12 PM 47.5°F8.6°C 34.3°F1.3°C 60% 1.6 mph SW2.6 kmh SW 3.1 mph5.0 kmh 29.96 in1014.6 mb - 0.00 in0.0 mm 0.00 in0.0 mm
08:17 PM 47.3°F8.5°C 34.2°F1.2°C 60% 1.3 mph NW2.1 kmh NW 2.5 mph4.0 kmh 29.96 in1014.6 mb - 0.00 in0.0 mm 0.00 in0.0 mm
08:22 PM 47.1°F8.4°C 34.3°F1.3°C 61% Calm Calm 0.7 mph1.1 kmh 29.96 in1014.6 mb - 0.00 in0.0 mm 0.00 in0.0 mm
08:27 PM 46.9°F8.3°C 34.2°F1.2°C 61% Calm Calm -- 29.96 in1014.6 mb - 0.00 in0.0 mm 0.00 in0.0 mm
08:32 PM 46.8°F8.2°C 34.0°F1.1°C 61% Calm Calm -- 29.99 in1015.6 mb - 0.00 in0.0 mm 0.00 in0.0 mm
08:37 PM 46.6°F8.1°C 34.3°F1.3°C 62% Calm Calm -- 29.99 in1015.6 mb - 0.00 in0.0 mm 0.00 in0.0 mm
08:42 PM 46.4°F8.0°C 34.2°F1.2°C 62% Calm Calm -- 29.99 in1015.6 mb - 0.00 in0.0 mm 0.00 in0.0 mm
08:47 PM 46.2°F7.9°C 34.3°F1.3°C 63% Calm Calm -- 29.99 in1015.6 mb - 0.00 in0.0 mm 0.00 in0.0 mm
08:52 PM 46.0°F7.8°C 34.2°F1.2°C 63% Calm Calm -- 29.99 in1015.6 mb - 0.00 in0.0 mm 0.00 in0.0 mm
08:57 PM 45.9°F7.7°C 34.0°F1.1°C 63% Calm Calm -- 29.99 in1015.6 mb - 0.00 in0.0 mm 0.00 in0.0 mm
09:02 PM 45.9°F7.7°C 34.0°F1.1°C 63% 2.0 mph SW3.2 kmh SW 4.9 mph7.9 kmh 29.99 in1015.6 mb - 0.00 in0.0 mm 0.00 in0.0 mm
09:07 PM 45.9°F7.7°C 34.3°F1.3°C 64% 3.4 mph WSW5.5 kmh WSW 5.8 mph9.3 kmh 29.99 in1015.6 mb - 0.00 in0.0 mm 0.00 in0.0 mm
09:12 PM 45.7°F7.6°C 34.7°F1.5°C 65% 2.9 mph SW4.7 kmh SW 4.7 mph7.6 kmh 29.99 in1015.6 mb - 0.00 in0.0 mm 0.00 in0.0 mm
09:17 PM 45.5°F7.5°C 34.5°F1.4°C 65% 2.0 mph SW3.2 kmh SW 3.1 mph5.0 kmh 29.99 in1015.6 mb - 0.00 in0.0 mm 0.00 in0.0 mm
09:22 PM 45.1°F7.3°C 33.8°F1.0°C 64% 2.0 mph NW3.2 kmh NW 2.9 mph4.7 kmh 29.99 in1015.6 mb - 0.00 in0.0 mm 0.00 in0.0 mm
09:27 PM 45.0°F7.2°C 34.0°F1.1°C 65% 2.0 mph SW3.2 kmh SW 3.1 mph5.0 kmh 29.99 in1015.6 mb - 0.00 in0.0 mm 0.00 in0.0 mm
09:32 PM 44.8°F7.1°C 33.8°F1.0°C 65% 1.6 mph SW2.6 kmh SW 2.7 mph4.3 kmh 29.99 in1015.6 mb - 0.00 in0.0 mm 0.00 in0.0 mm
09:37 PM 44.6°F7.0°C 33.6°F0.9°C 65% 1.1 mph SW1.8 kmh SW 2.2 mph3.5 kmh 29.99 in1015.6 mb - 0.00 in0.0 mm 0.00 in0.0 mm
09:42 PM 44.4°F6.9°C 33.4°F0.8°C 65% Calm Calm -- 29.99 in1015.6 mb - 0.00 in0.0 mm 0.00 in0.0 mm
09:47 PM 44.2°F6.8°C 33.3°F0.7°C 65% 0.4 mph SW0.6 kmh SW 1.8 mph2.9 kmh 29.96 in1014.6 mb - 0.00 in0.0 mm 0.00 in0.0 mm
09:52 PM 44.1°F6.7°C 33.1°F0.6°C 65% 0.2 mph SSW0.3 kmh SSW 2.0 mph3.2 kmh 29.96 in1014.6 mb - 0.00 in0.0 mm 0.00 in0.0 mm
09:57 PM 43.9°F6.6°C 33.3°F0.7°C 66% 1.8 mph SW2.9 kmh SW 2.9 mph4.7 kmh 29.96 in1014.6 mb - 0.00 in0.0 mm 0.00 in0.0 mm
10:02 PM 43.7°F6.5°C 33.1°F0.6°C 66% 1.6 mph SW2.6 kmh SW 2.7 mph4.3 kmh 29.96 in1014.6 mb - 0.00 in0.0 mm 0.00 in0.0 mm
10:07 PM 43.5°F6.4°C 33.3°F0.7°C 67% 0.2 mph WSW0.3 kmh WSW 1.1 mph1.8 kmh 29.96 in1014.6 mb - 0.00 in0.0 mm 0.00 in0.0 mm
10:12 PM 43.3°F6.3°C 32.7°F0.4°C 66% Calm Calm -- 29.96 in1014.6 mb - 0.00 in0.0 mm 0.00 in0.0 mm
10:17 PM 43.2°F6.2°C 32.9°F0.5°C 67% Calm Calm -- 29.99 in1015.6 mb - 0.00 in0.0 mm 0.00 in0.0 mm
10:22 PM 43.0°F6.1°C 32.7°F0.4°C 67% Calm Calm -- 29.99 in1015.6 mb - 0.00 in0.0 mm 0.00 in0.0 mm
10:27 PM 43.0°F6.1°C 32.7°F0.4°C 67% Calm Calm -- 29.99 in1015.6 mb - 0.00 in0.0 mm 0.00 in0.0 mm
10:32 PM 42.8°F6.0°C 33.1°F0.6°C 68% Calm Calm -- 29.99 in1015.6 mb - 0.00 in0.0 mm 0.00 in0.0 mm
10:37 PM 42.8°F6.0°C 33.4°F0.8°C 69% Calm Calm -- 29.99 in1015.6 mb - 0.00 in0.0 mm 0.00 in0.0 mm
10:42 PM 42.8°F6.0°C 33.4°F0.8°C 69% 0.2 mph SW0.3 kmh SW 3.6 mph5.8 kmh 29.99 in1015.6 mb - 0.00 in0.0 mm 0.00 in0.0 mm
10:47 PM 43.2°F6.2°C 34.0°F1.1°C 70% 0.9 mph W1.4 kmh W 2.2 mph3.5 kmh 29.99 in1015.6 mb - 0.00 in0.0 mm 0.00 in0.0 mm
10:52 PM 43.2°F6.2°C 34.0°F1.1°C 70% 0.7 mph WSW1.1 kmh WSW 2.7 mph4.3 kmh 29.99 in1015.6 mb - 0.00 in0.0 mm 0.00 in0.0 mm
10:57 PM 43.3°F6.3°C 34.2°F1.2°C 70% 1.3 mph W2.1 kmh W 2.2 mph3.5 kmh 29.99 in1015.6 mb - 0.00 in0.0 mm 0.00 in0.0 mm
11:02 PM 43.3°F6.3°C 33.8°F1.0°C 69% 1.8 mph WSW2.9 kmh WSW 2.7 mph4.3 kmh 29.99 in1015.6 mb - 0.00 in0.0 mm 0.00 in0.0 mm
11:07 PM 43.3°F6.3°C 33.8°F1.0°C 69% 2.0 mph WSW3.2 kmh WSW 3.8 mph6.1 kmh 29.99 in1015.6 mb - 0.00 in0.0 mm 0.00 in0.0 mm
11:12 PM 43.2°F6.2°C 33.6°F0.9°C 69% 2.9 mph WSW4.7 kmh WSW 4.5 mph7.2 kmh 29.99 in1015.6 mb - 0.00 in0.0 mm 0.00 in0.0 mm
11:17 PM 43.0°F6.1°C 34.0°F1.1°C 70% 1.8 mph WSW2.9 kmh WSW 4.0 mph6.4 kmh 30.01 in1016.3 mb - 0.00 in0.0 mm 0.00 in0.0 mm
11:22 PM 43.0°F6.1°C 34.2°F1.2°C 71% 2.0 mph WSW3.2 kmh WSW 4.7 mph7.6 kmh 30.01 in1016.3 mb - 0.00 in0.0 mm 0.00 in0.0 mm
11:27 PM 42.8°F6.0°C 33.8°F1.0°C 70% 2.5 mph SW4.0 kmh SW 5.4 mph8.7 kmh 30.01 in1016.3 mb - 0.00 in0.0 mm 0.00 in0.0 mm
11:32 PM 42.6°F5.9°C 33.6°F0.9°C 70% 2.5 mph WSW4.0 kmh WSW 3.8 mph6.1 kmh 29.99 in1015.6 mb - 0.00 in0.0 mm 0.00 in0.0 mm
11:37 PM 42.4°F5.8°C 33.8°F1.0°C 71% 1.3 mph SW2.1 kmh SW 2.5 mph4.0 kmh 29.99 in1015.6 mb - 0.00 in0.0 mm 0.00 in0.0 mm
11:42 PM 42.3°F5.7°C 34.0°F1.1°C 72% 2.2 mph WSW3.5 kmh WSW 3.6 mph5.8 kmh 29.99 in1015.6 mb - 0.00 in0.0 mm 0.00 in0.0 mm
11:47 PM 42.1°F5.6°C 34.2°F1.2°C 73% 2.9 mph W4.7 kmh W 4.3 mph6.9 kmh 29.99 in1015.6 mb - 0.00 in0.0 mm 0.00 in0.0 mm
11:52 PM 42.1°F5.6°C 34.2°F1.2°C 73% 3.1 mph WSW5.0 kmh WSW 4.7 mph7.6 kmh 29.99 in1015.6 mb - 0.00 in0.0 mm 0.00 in0.0 mm
11:57 PM 41.9°F5.5°C 33.6°F0.9°C 72% 3.4 mph WSW5.5 kmh WSW 6.3 mph10.1 kmh 29.99 in1015.6 mb - 0.00 in0.0 mm 0.00 in0.0 mm